createdAt,value
2023-03-13T00:01:33.216Z,10.45
2023-03-13T00:04:01.634Z,9.27
2023-03-13T00:06:34.505Z,9.05
2023-03-13T00:09:02.769Z,7.72
2023-03-13T00:11:30.425Z,8.27
2023-03-13T00:14:02.313Z,8.07
2023-03-13T00:16:34.729Z,9.73
2023-03-13T00:19:02.301Z,9.43
2023-03-13T00:21:30.094Z,8.15
2023-03-13T00:24:04.038Z,11.68
2023-03-13T00:26:32.480Z,8.70
2023-03-13T00:29:00.756Z,5.47
2023-03-13T00:31:31.431Z,7.07
2023-03-13T00:34:02.575Z,7.25
2023-03-13T00:36:32.824Z,10.70
2023-03-13T00:39:08.227Z,9.35
2023-03-13T00:41:36.178Z,12.23
2023-03-13T00:44:04.445Z,10.93
2023-03-13T00:46:32.071Z,8.80
2023-03-13T00:48:59.717Z,10.52
2023-03-13T00:51:27.662Z,9.38
2023-03-13T00:53:56.594Z,8.20
2023-03-13T00:56:24.868Z,11.70
2023-03-13T00:58:52.968Z,9.73
2023-03-13T01:01:28.782Z,7.82
2023-03-13T01:03:58.368Z,9.38
2023-03-13T01:06:27.698Z,4.68
2023-03-13T01:08:59.346Z,5.50
2023-03-13T01:11:29.500Z,6.13
2023-03-13T01:13:59.371Z,7.35
2023-03-13T01:16:29.302Z,7.05
2023-03-13T01:19:03.393Z,10.20
2023-03-13T01:21:30.989Z,7.88
2023-03-13T01:23:58.706Z,8.10
2023-03-13T01:26:27.516Z,9.65
2023-03-13T01:28:55.855Z,8.25
2023-03-13T01:31:31.961Z,9.60
2023-03-13T01:34:01.543Z,8.50
2023-03-13T01:36:31.451Z,11.13
2023-03-13T01:39:00.247Z,8.02
2023-03-13T01:41:30.093Z,8.10
2023-03-13T01:43:58.728Z,10.38
2023-03-13T01:46:32.236Z,10.95
2023-03-13T01:49:10.196Z,18.10
2023-03-13T01:52:23.972Z,10.68
2023-03-13T01:54:57.401Z,14.43
2023-03-13T01:57:37.481Z,9.85
2023-03-13T02:00:13.623Z,8.63
2023-03-13T02:02:50.010Z,14.75
2023-03-13T02:05:19.368Z,14.30
2023-03-13T02:08:11.865Z,12.00
2023-03-13T02:10:42.808Z,13.27
2023-03-13T02:13:17.473Z,14.82
2023-03-13T02:15:45.363Z,15.55
2023-03-13T02:18:13.006Z,16.88
2023-03-13T02:20:44.801Z,12.13
2023-03-13T02:23:20.512Z,16.02
2023-03-13T02:25:52.173Z,8.45
2023-03-13T02:28:34.622Z,8.57
2023-03-13T02:31:05.197Z,10.52
2023-03-13T02:33:37.944Z,11.30
2023-03-13T02:36:10.570Z,10.18
2023-03-13T02:38:51.038Z,14.05
2023-03-13T02:41:18.861Z,7.05
2023-03-13T02:43:46.864Z,9.30
2023-03-13T02:46:19.545Z,7.65
2023-03-13T02:48:57.599Z,7.43
2023-03-13T02:51:33.148Z,10.10
2023-03-13T02:54:12.573Z,9.75
2023-03-13T02:56:42.007Z,9.70
2023-03-13T02:59:11.091Z,8.98
2023-03-13T03:01:41.966Z,10.07
2023-03-13T03:04:09.771Z,8.63
2023-03-13T03:06:37.492Z,10.07
2023-03-13T03:09:07.408Z,11.38
2023-03-13T03:11:38.742Z,12.57
2023-03-13T03:14:10.331Z,12.15
2023-03-13T03:16:43.005Z,11.45
2023-03-13T03:19:15.511Z,15.35
2023-03-13T03:21:43.474Z,17.13
2023-03-13T03:24:11.105Z,7.55
2023-03-13T03:26:38.641Z,8.32
2023-03-13T03:29:12.349Z,12.90
2023-03-13T03:31:44.571Z,10.30
2023-03-13T03:34:13.228Z,10.30
2023-03-13T03:36:40.877Z,11.77
2023-03-13T03:39:08.433Z,13.70
2023-03-13T03:41:37.575Z,10.48
2023-03-13T03:44:06.278Z,11.18
2023-03-13T03:46:48.978Z,8.75
2023-03-13T03:49:17.140Z,10.35
2023-03-13T03:51:44.818Z,9.25
2023-03-13T03:54:15.306Z,6.45
2023-03-13T03:56:43.026Z,10.82
2023-03-13T03:59:16.656Z,12.27
2023-03-13T04:01:57.392Z,11.57
2023-03-13T04:04:27.380Z,12.32
2023-03-13T04:07:02.443Z,13.93
2023-03-13T04:09:32.313Z,10.15
2023-03-13T04:12:02.077Z,17.40
2023-03-13T04:14:33.732Z,12.65
2023-03-13T04:19:34.375Z,11.38
2023-03-13T04:22:02.555Z,12.38
2023-03-13T04:24:30.568Z,12.23
2023-03-13T04:26:58.640Z,8.88
2023-03-13T04:29:27.031Z,11.52
2023-03-13T04:32:03.573Z,10.65
2023-03-13T04:37:46.194Z,14.07
2023-03-13T04:40:34.030Z,10.48
2023-03-13T04:43:17.629Z,12.23
2023-03-13T04:46:11.356Z,10.63
2023-03-13T04:48:51.896Z,9.45
2023-03-13T04:51:38.076Z,12.27
2023-03-13T04:54:28.918Z,9.45
2023-03-13T04:57:08.742Z,15.13
2023-03-13T05:00:08.267Z,14.52
2023-03-13T05:02:53.358Z,8.98
2023-03-13T05:05:29.289Z,12.70
2023-03-13T05:08:18.063Z,14.35
2023-03-13T05:14:38.727Z,14.02
2023-03-13T05:17:15.655Z,6.63
2023-03-13T05:20:11.460Z,11.55
2023-03-13T05:23:03.352Z,10.88
2023-03-13T05:25:56.745Z,8.23
2023-03-13T05:28:43.150Z,8.25
2023-03-13T05:31:10.925Z,9.07
2023-03-13T05:33:57.105Z,9.02
2023-03-13T05:36:43.596Z,8.50
2023-03-13T05:39:41.166Z,11.30
2023-03-13T05:42:45.171Z,8.80
2023-03-13T05:45:32.673Z,10.65
2023-03-13T05:48:12.146Z,8.63
2023-03-13T05:51:00.703Z,7.32
2023-03-13T05:53:54.186Z,6.85
2023-03-13T05:56:53.185Z,7.18
2023-03-13T05:59:46.989Z,6.90
2023-03-13T06:02:41.024Z,4.68
2023-03-13T06:05:13.955Z,8.68
2023-03-13T06:07:41.667Z,10.00
2023-03-13T06:10:10.655Z,3.40
2023-03-13T06:12:38.877Z,4.00
2023-03-13T06:15:11.695Z,5.05
2023-03-13T06:17:56.148Z,6.10
2023-03-13T06:20:24.060Z,6.10
2023-03-13T06:22:52.831Z,4.80
2023-03-13T06:25:20.682Z,6.85
2023-03-13T06:27:48.278Z,4.10
2023-03-13T06:30:16.271Z,2.67
2023-03-13T06:32:44.402Z,3.72
2023-03-13T06:35:12.399Z,3.28
2023-03-13T06:37:41.279Z,3.95
2023-03-13T06:40:09.852Z,4.35
2023-03-13T06:42:38.599Z,2.72
2023-03-13T06:45:06.696Z,3.30
2023-03-13T06:47:34.540Z,3.53
2023-03-13T06:50:02.110Z,4.88
2023-03-13T06:52:41.397Z,4.28
2023-03-13T06:55:11.272Z,3.17
2023-03-13T06:57:39.968Z,3.65
2023-03-13T07:00:11.513Z,2.95
2023-03-13T07:02:39.142Z,3.88
2023-03-13T07:05:08.692Z,3.90
2023-03-13T07:07:36.838Z,2.25
2023-03-13T07:10:05.369Z,2.33
2023-03-13T07:12:35.817Z,3.15
2023-03-13T07:15:04.690Z,2.75
2023-03-13T07:17:35.301Z,3.22
2023-03-13T07:20:10.746Z,3.83
2023-03-13T07:22:38.433Z,5.72
2023-03-13T07:25:07.319Z,3.08
2023-03-13T07:27:35.818Z,4.30
2023-03-13T07:30:03.598Z,3.38
2023-03-13T07:32:33.434Z,3.03
2023-03-13T07:35:03.434Z,2.63
2023-03-13T07:37:31.254Z,1.15
2023-03-13T07:39:59.093Z,3.42
2023-03-13T07:42:29.329Z,6.18
2023-03-13T07:44:56.924Z,5.25
2023-03-13T07:47:24.465Z,4.35
2023-03-13T07:49:54.023Z,2.30
2023-03-13T07:52:23.191Z,5.93
2023-03-13T07:54:51.265Z,5.57
2023-03-13T07:57:20.840Z,3.42
2023-03-13T07:59:48.473Z,3.28
2023-03-13T08:02:17.207Z,4.20
2023-03-13T08:04:44.956Z,2.97
2023-03-13T08:07:12.816Z,2.65
2023-03-13T08:09:41.567Z,4.68
2023-03-13T08:12:11.256Z,2.38
2023-03-13T08:14:39.113Z,1.30
2023-03-13T08:17:07.448Z,3.70
2023-03-13T08:19:38.652Z,4.97
2023-03-13T08:22:06.202Z,1.85
2023-03-13T08:24:33.967Z,3.50
2023-03-13T08:27:02.750Z,3.58
2023-03-13T08:29:30.515Z,2.63
2023-03-13T08:31:58.201Z,2.15
2023-03-13T08:34:25.794Z,2.53
2023-03-13T08:36:53.439Z,2.63
2023-03-13T08:39:21.856Z,1.23
2023-03-13T08:41:49.546Z,1.92
2023-03-13T08:44:21.433Z,3.05
2023-03-13T08:46:52.569Z,5.90
2023-03-13T08:49:20.237Z,1.77
2023-03-13T08:51:48.838Z,1.45
2023-03-13T08:54:16.527Z,1.00
2023-03-13T08:56:44.753Z,4.20
2023-03-13T08:59:12.861Z,2.58
2023-03-13T09:01:40.373Z,1.63
2023-03-13T09:04:08.124Z,2.88
2023-03-13T09:06:36.653Z,9.75
2023-03-13T09:09:10.722Z,2.55
2023-03-13T09:11:42.268Z,3.00
2023-03-13T09:14:12.001Z,0.70
2023-03-13T09:16:42.486Z,2.60
2023-03-13T09:19:11.114Z,1.65
2023-03-13T09:21:38.666Z,2.97
2023-03-13T09:24:06.661Z,1.75
2023-03-13T09:26:34.243Z,3.35
2023-03-13T09:29:02.201Z,4.07
2023-03-13T09:31:30.920Z,2.42
2023-03-13T09:34:02.175Z,1.05
2023-03-13T09:36:30.174Z,4.70
2023-03-13T09:38:58.719Z,3.30
2023-03-13T09:41:40.778Z,2.33
2023-03-13T09:44:19.649Z,2.92
2023-03-13T09:47:00.103Z,2.08
2023-03-13T09:49:35.056Z,3.83
2023-03-13T09:52:16.952Z,2.28
2023-03-13T09:55:03.605Z,2.05
2023-03-13T09:58:08.731Z,5.68
2023-03-13T10:00:44.694Z,2.50
2023-03-13T10:03:29.652Z,4.95
2023-03-13T10:06:01.729Z,1.65
2023-03-13T10:08:34.101Z,1.42
2023-03-13T10:11:10.385Z,1.80
2023-03-13T10:13:39.330Z,3.63
2023-03-13T10:16:10.172Z,2.20
2023-03-13T10:18:37.867Z,3.30
2023-03-13T10:21:20.134Z,2.70
2023-03-13T10:23:58.121Z,1.95
2023-03-13T10:26:29.053Z,2.63
2023-03-13T10:28:57.367Z,1.85
2023-03-13T10:31:32.466Z,1.60
2023-03-13T10:34:46.618Z,2.45
2023-03-13T10:37:15.561Z,1.70
2023-03-13T10:39:47.389Z,3.67
2023-03-13T10:42:21.892Z,1.42
2023-03-13T10:44:50.450Z,1.85
2023-03-13T10:47:18.031Z,3.35
2023-03-13T10:49:53.120Z,5.15
2023-03-13T10:52:32.531Z,3.38
2023-03-13T10:55:01.615Z,2.45
2023-03-13T10:57:30.952Z,4.10
2023-03-13T10:59:58.989Z,8.43
2023-03-13T11:02:39.184Z,2.58
2023-03-13T11:05:25.555Z,2.60
2023-03-13T11:07:53.635Z,3.15
2023-03-13T11:10:29.994Z,2.53
2023-03-13T11:13:00.116Z,4.57
2023-03-13T11:15:44.595Z,2.72
2023-03-13T11:18:15.702Z,3.13
2023-03-13T11:20:45.249Z,2.78
2023-03-13T11:23:34.099Z,3.40
2023-03-13T11:26:10.842Z,5.00
2023-03-13T11:29:19.520Z,2.60
2023-03-13T11:31:49.393Z,3.33
2023-03-13T11:34:40.270Z,3.00
2023-03-13T11:37:14.968Z,4.38
2023-03-13T11:39:47.533Z,4.30
2023-03-13T11:42:52.573Z,4.75
2023-03-13T11:45:35.565Z,2.42
2023-03-13T11:48:26.901Z,3.50
2023-03-13T11:51:20.580Z,2.40
2023-03-13T11:54:13.823Z,3.92
2023-03-13T11:56:44.063Z,3.80
2023-03-13T11:59:30.001Z,4.93
2023-03-13T12:02:01.175Z,3.03
2023-03-13T12:04:35.622Z,4.47
2023-03-13T12:07:06.909Z,3.95
2023-03-13T12:10:05.938Z,4.63
2023-03-13T12:12:41.385Z,4.38
2023-03-13T12:15:21.904Z,4.03
2023-03-13T12:18:00.870Z,4.53
2023-03-13T12:20:42.338Z,4.72
2023-03-13T12:23:42.320Z,6.90
2023-03-13T12:26:15.312Z,3.65
2023-03-13T12:28:49.435Z,5.88
2023-03-13T12:31:30.360Z,6.93
2023-03-13T12:36:55.709Z,5.05
2023-03-13T12:39:41.977Z,4.13
2023-03-13T12:42:17.330Z,4.90
2023-03-13T12:44:44.901Z,4.43
2023-03-13T12:47:31.320Z,8.88
2023-03-13T12:50:32.525Z,5.70
2023-03-13T12:53:34.798Z,8.98
2023-03-13T12:56:44.017Z,28.95
2023-03-13T12:59:16.416Z,6.55
2023-03-13T13:01:51.784Z,7.65
2023-03-13T13:04:26.000Z,5.68
2023-03-13T13:07:05.026Z,9.00
2023-03-13T13:09:37.231Z,8.07
2023-03-13T13:12:23.306Z,6.53
2023-03-13T13:14:51.133Z,12.90
2023-03-13T13:17:39.067Z,6.18
2023-03-13T13:20:25.508Z,7.88
2023-03-13T13:22:53.802Z,7.88
2023-03-13T13:25:24.597Z,7.55
2023-03-13T13:27:52.462Z,6.27
2023-03-13T13:30:20.100Z,5.93
2023-03-13T13:32:51.784Z,7.53
2023-03-13T13:35:20.754Z,8.32
2023-03-13T13:37:49.640Z,7.18
2023-03-13T13:40:26.250Z,10.07
2023-03-13T13:42:58.203Z,9.00
2023-03-13T13:48:15.554Z,6.30
2023-03-13T13:51:18.708Z,7.65
2023-03-13T13:53:46.226Z,10.38
2023-03-13T13:56:28.911Z,6.82
2023-03-13T13:59:24.889Z,5.43
2023-03-13T14:02:09.846Z,9.23
2023-03-13T14:04:55.806Z,10.43
2023-03-13T14:07:42.017Z,13.13
2023-03-13T14:10:40.072Z,12.60
2023-03-13T14:13:34.019Z,12.50
2023-03-13T14:16:24.383Z,14.48
2023-03-13T14:18:54.448Z,13.75
2023-03-13T14:21:25.284Z,17.50
2023-03-13T14:23:52.996Z,20.73
2023-03-13T14:26:28.464Z,17.15
2023-03-13T14:29:02.982Z,13.05
2023-03-13T14:31:35.978Z,19.98
2023-03-13T14:34:11.545Z,16.50
2023-03-13T14:37:11.168Z,19.48
2023-03-13T14:39:45.619Z,18.77
2023-03-13T14:42:14.089Z,16.92
2023-03-13T14:44:44.119Z,22.60
2023-03-13T14:47:26.884Z,17.25
2023-03-13T14:50:01.929Z,12.75
2023-03-13T14:52:34.193Z,20.50
2023-03-13T14:55:07.997Z,15.93
2023-03-13T14:57:35.834Z,20.52
2023-03-13T15:00:29.615Z,46.30
2023-03-13T15:03:13.105Z,63.28
2023-03-13T15:05:40.788Z,33.20
2023-03-13T15:08:17.482Z,26.50
2023-03-13T15:10:45.446Z,23.58
2023-03-13T15:13:19.762Z,16.67
2023-03-13T15:15:47.619Z,18.77
2023-03-13T15:18:23.523Z,43.13
2023-03-13T15:20:52.690Z,22.13
2023-03-13T15:23:20.711Z,310.15
2023-03-13T15:25:48.537Z,215.57
2023-03-13T15:28:21.443Z,68.32
2023-03-13T15:30:51.381Z,31.10
2023-03-13T15:33:22.823Z,112.47
2023-03-13T15:38:20.633Z,239.25
2023-03-13T15:40:48.306Z,155.65
2023-03-13T15:43:17.760Z,278.75
2023-03-13T15:45:45.688Z,60.92
2023-03-13T15:48:19.736Z,18.92
2023-03-13T15:50:54.871Z,29.30
2023-03-13T15:53:27.905Z,12.25
2023-03-13T15:55:57.940Z,30.50
2023-03-13T15:58:27.552Z,30.00
2023-03-13T16:00:56.251Z,121.53
2023-03-13T16:03:25.970Z,32.80
2023-03-13T16:05:54.077Z,97.07
2023-03-13T16:08:35.235Z,23.48
2023-03-13T16:11:04.849Z,18.13
2023-03-13T16:13:33.386Z,17.02
2023-03-13T16:16:01.596Z,14.70
2023-03-13T16:18:29.352Z,21.83
2023-03-13T16:20:57.265Z,19.55
2023-03-13T16:23:24.857Z,16.17
2023-03-13T16:25:52.372Z,30.13
2023-03-13T16:28:19.921Z,35.08
2023-03-13T16:30:47.888Z,65.30
2023-03-13T16:33:15.484Z,71.50
2023-03-13T16:35:43.769Z,63.13
2023-03-13T16:38:11.278Z,48.30
2023-03-13T16:40:39.626Z,54.22
2023-03-13T16:43:07.679Z,37.50
2023-03-13T16:45:39.630Z,67.10
2023-03-13T16:48:07.380Z,102.25
2023-03-13T16:50:36.739Z,113.72
2023-03-13T16:53:04.942Z,59.22
2023-03-13T16:55:36.788Z,33.25
2023-03-13T16:58:04.784Z,38.33
2023-03-13T17:00:32.605Z,26.75
2023-03-13T17:03:01.665Z,24.27
2023-03-13T17:05:29.685Z,24.02
2023-03-13T17:07:57.252Z,40.70
2023-03-13T17:10:26.945Z,34.10
2023-03-13T17:12:54.575Z,36.80
2023-03-13T17:17:56.176Z,36.65
2023-03-13T17:20:25.744Z,34.30
2023-03-13T17:22:56.363Z,63.38
2023-03-13T17:25:25.080Z,57.95
2023-03-13T17:30:24.975Z,48.67
2023-03-13T17:32:52.718Z,76.15
2023-03-13T17:35:23.237Z,62.20
2023-03-13T17:37:51.036Z,76.07
2023-03-13T17:40:23.581Z,102.60
2023-03-13T17:42:51.281Z,67.38
2023-03-13T17:45:19.029Z,68.00
2023-03-13T17:47:47.226Z,65.45
2023-03-13T17:50:17.670Z,59.30
2023-03-13T17:52:51.200Z,57.88
2023-03-13T17:55:19.342Z,60.42
2023-03-13T17:57:48.470Z,59.17
2023-03-13T18:00:22.231Z,58.88
2023-03-13T18:02:50.384Z,63.50
2023-03-13T18:05:18.288Z,58.15
2023-03-13T18:07:46.323Z,65.32
2023-03-13T18:10:25.144Z,70.63
2023-03-13T18:12:53.240Z,73.75
2023-03-13T18:15:21.643Z,62.78
2023-03-13T18:17:52.012Z,74.32
2023-03-13T18:20:25.516Z,60.63
2023-03-13T18:22:54.245Z,65.40
2023-03-13T18:25:23.385Z,91.80
2023-03-13T18:27:50.974Z,76.40
2023-03-13T18:30:23.839Z,82.30
2023-03-13T18:32:51.680Z,84.15
2023-03-13T18:35:19.228Z,122.03
2023-03-13T18:37:49.686Z,107.93
2023-03-13T18:40:36.346Z,108.70
2023-03-13T18:43:06.639Z,85.05
2023-03-13T18:45:36.522Z,96.80
2023-03-13T18:48:04.180Z,95.43
2023-03-13T18:50:32.308Z,64.40
2023-03-13T18:53:00.082Z,71.30
2023-03-13T18:55:28.761Z,69.63
2023-03-13T18:57:56.538Z,58.72
2023-03-13T19:00:25.892Z,65.43
2023-03-13T19:02:53.606Z,76.95
2023-03-13T19:05:21.188Z,76.90
2023-03-13T19:07:49.836Z,73.32
2023-03-13T19:10:24.359Z,82.13
2023-03-13T19:12:58.313Z,90.18
2023-03-13T19:15:27.626Z,84.82
2023-03-13T19:17:56.359Z,84.00
2023-03-13T19:20:25.150Z,67.93
2023-03-13T19:22:54.506Z,81.97
2023-03-13T19:25:22.813Z,86.35
2023-03-13T19:27:51.683Z,91.90
2023-03-13T19:30:23.766Z,93.88
2023-03-13T19:32:57.827Z,79.78
2023-03-13T19:35:25.551Z,76.90
2023-03-13T19:37:53.190Z,84.10
2023-03-13T19:40:23.013Z,81.90
2023-03-13T19:42:50.529Z,67.80
2023-03-13T19:45:20.560Z,71.57
2023-03-13T19:47:48.296Z,62.33
2023-03-13T19:50:20.622Z,64.47
2023-03-13T19:52:48.704Z,60.50
2023-03-13T19:55:16.512Z,64.93
2023-03-13T19:57:44.630Z,50.05
2023-03-13T20:00:21.714Z,73.05
2023-03-13T20:02:58.452Z,70.25
2023-03-13T20:05:28.886Z,83.03
2023-03-13T20:07:58.862Z,77.65
2023-03-13T20:10:27.776Z,76.93
2023-03-13T20:12:58.134Z,56.45
2023-03-13T20:15:25.732Z,70.80
2023-03-13T20:17:53.332Z,50.72
2023-03-13T20:20:21.073Z,35.35
2023-03-13T20:22:50.538Z,46.13
2023-03-13T20:25:18.548Z,36.63
2023-03-13T20:27:49.818Z,33.05
2023-03-13T20:30:17.667Z,42.53
2023-03-13T20:32:57.006Z,36.40
2023-03-13T20:35:27.749Z,30.92
2023-03-13T20:37:57.546Z,35.60
2023-03-13T20:40:25.902Z,25.65
2023-03-13T20:42:53.445Z,34.20
2023-03-13T20:45:21.286Z,29.20
2023-03-13T20:47:49.688Z,24.67
2023-03-13T20:50:19.557Z,20.05
2023-03-13T20:52:48.902Z,23.27
2023-03-13T20:55:16.851Z,20.92
2023-03-13T20:57:46.362Z,24.00
2023-03-13T21:00:14.519Z,27.65
2023-03-13T21:02:42.076Z,19.42
2023-03-13T21:05:10.216Z,20.75
2023-03-13T21:07:37.900Z,21.33
2023-03-13T21:10:14.447Z,19.08
2023-03-13T21:12:42.218Z,27.60
2023-03-13T21:15:10.304Z,18.10
2023-03-13T21:17:38.467Z,17.92
2023-03-13T21:20:13.832Z,13.52
2023-03-13T21:22:42.166Z,20.02
2023-03-13T21:25:10.544Z,17.50
2023-03-13T21:27:39.177Z,16.67
2023-03-13T21:30:10.595Z,17.90
2023-03-13T21:32:39.424Z,19.10
2023-03-13T21:35:07.353Z,17.95
2023-03-13T21:37:35.645Z,21.42
2023-03-13T21:40:04.622Z,17.25
2023-03-13T21:42:34.374Z,20.60
2023-03-13T21:45:02.809Z,18.85
2023-03-13T21:47:37.392Z,16.00
2023-03-13T21:50:06.502Z,19.20
2023-03-13T21:52:40.774Z,15.20
2023-03-13T21:55:11.441Z,17.05
2023-03-13T21:57:39.954Z,13.90
2023-03-13T22:00:08.912Z,24.17
2023-03-13T22:02:37.609Z,22.98
2023-03-13T22:05:05.587Z,18.27
2023-03-13T22:07:35.357Z,19.85
2023-03-13T22:10:02.847Z,32.78
2023-03-13T22:12:37.477Z,48.13
2023-03-13T22:15:06.752Z,67.35
2023-03-13T22:17:34.850Z,103.18
2023-03-13T22:20:02.444Z,120.60
2023-03-13T22:22:31.317Z,131.27
2023-03-13T22:25:04.626Z,135.75
2023-03-13T22:27:32.760Z,147.27
2023-03-13T22:30:00.360Z,115.30
2023-03-13T22:32:28.058Z,104.97
2023-03-13T22:34:55.932Z,108.70
2023-03-13T22:37:28.882Z,122.20
2023-03-13T22:39:57.634Z,139.45
2023-03-13T22:42:26.170Z,136.18
2023-03-13T22:44:55.492Z,171.63
2023-03-13T22:47:24.787Z,164.93
2023-03-13T22:49:53.771Z,167.85
2023-03-13T22:52:23.434Z,172.10
2023-03-13T22:54:51.099Z,163.45
2023-03-13T22:57:18.607Z,157.80
2023-03-13T22:59:46.241Z,165.43
2023-03-13T23:02:13.745Z,166.15
2023-03-13T23:04:41.713Z,138.40
2023-03-13T23:07:13.365Z,111.90
2023-03-13T23:09:41.247Z,85.63
2023-03-13T23:12:09.863Z,77.75
2023-03-13T23:14:38.085Z,69.53
2023-03-13T23:17:07.000Z,49.75
2023-03-13T23:19:36.109Z,49.55
2023-03-13T23:22:04.781Z,49.78
2023-03-13T23:24:33.665Z,33.72
2023-03-13T23:27:07.930Z,39.75
2023-03-13T23:29:37.896Z,33.67
2023-03-13T23:32:07.068Z,50.72
2023-03-13T23:34:37.160Z,97.18
2023-03-13T23:37:05.374Z,132.35
2023-03-13T23:39:40.054Z,173.77
2023-03-13T23:42:08.564Z,202.95
2023-03-13T23:44:37.074Z,214.35
2023-03-13T23:47:06.015Z,234.30
2023-03-13T23:49:34.315Z,223.52
2023-03-13T23:52:04.027Z,192.88
2023-03-13T23:54:32.929Z,154.90
2023-03-13T23:57:06.488Z,111.95
2023-03-13T23:59:34.910Z,65.00
